createdAt,value
2023-02-07T00:02:46.174Z,4.67
2023-02-07T00:07:48.426Z,5.90
2023-02-07T00:12:50.719Z,5.40
2023-02-07T00:17:53.014Z,5.73
2023-02-07T00:22:55.430Z,5.67
2023-02-07T00:27:57.676Z,5.67
2023-02-07T00:33:00.041Z,5.80
2023-02-07T00:38:02.315Z,6.00
2023-02-07T00:43:04.660Z,4.97
2023-02-07T00:48:07.039Z,5.33
2023-02-07T00:53:09.289Z,5.13
2023-02-07T00:58:11.498Z,5.10
2023-02-07T01:03:14.884Z,5.40
2023-02-07T01:08:17.417Z,4.57
2023-02-07T01:13:19.630Z,4.90
2023-02-07T01:18:21.911Z,4.70
2023-02-07T01:23:24.202Z,3.50
2023-02-07T01:28:26.513Z,3.50
2023-02-07T01:33:28.729Z,3.20
2023-02-07T01:38:31.631Z,3.40
2023-02-07T01:43:34.024Z,2.87
2023-02-07T01:48:37.909Z,3.73
2023-02-07T01:53:41.296Z,4.67
2023-02-07T01:58:43.948Z,3.83
2023-02-07T02:03:49.537Z,4.10
2023-02-07T02:09:00.578Z,3.40
2023-02-07T02:14:42.432Z,4.40
2023-02-07T02:20:58.706Z,4.77
2023-02-07T02:26:32.992Z,4.20
2023-02-07T02:31:59.377Z,4.50
2023-02-07T02:37:24.296Z,4.87
2023-02-07T02:42:55.820Z,4.80
2023-02-07T02:47:58.662Z,4.83
2023-02-07T02:53:01.063Z,4.73
2023-02-07T02:58:32.700Z,5.27
2023-02-07T03:03:54.955Z,4.40
2023-02-07T03:09:26.338Z,4.47
2023-02-07T03:14:53.530Z,5.47
2023-02-07T03:20:22.734Z,4.83
2023-02-07T03:25:25.583Z,4.83
2023-02-07T03:30:33.770Z,5.03
2023-02-07T03:35:58.130Z,4.30
2023-02-07T03:41:12.136Z,4.90
2023-02-07T03:46:14.391Z,4.70
2023-02-07T03:51:16.678Z,5.07
2023-02-07T03:56:18.903Z,5.43
2023-02-07T04:01:21.377Z,6.00
2023-02-07T04:06:24.019Z,5.20
2023-02-07T04:11:26.366Z,6.03
2023-02-07T04:16:28.812Z,6.77
2023-02-07T04:21:31.128Z,6.97
2023-02-07T04:26:33.513Z,7.40
2023-02-07T04:31:37.739Z,7.80
2023-02-07T04:36:40.052Z,8.20
2023-02-07T04:41:42.344Z,6.83
2023-02-07T04:46:44.556Z,6.60
2023-02-07T04:51:46.843Z,6.30
2023-02-07T04:56:49.093Z,6.30
2023-02-07T05:01:51.388Z,5.60
2023-02-07T05:06:53.625Z,7.80
2023-02-07T05:11:55.746Z,6.70
2023-02-07T05:16:58.039Z,6.40
2023-02-07T05:22:00.321Z,7.10
2023-02-07T05:27:02.666Z,6.70
2023-02-07T05:32:23.937Z,6.50
2023-02-07T05:37:26.517Z,9.27
2023-02-07T05:42:28.634Z,5.43
2023-02-07T05:47:30.745Z,4.40
2023-02-07T05:52:35.574Z,6.03
2023-02-07T05:57:38.002Z,5.70
2023-02-07T06:02:41.196Z,7.27
2023-02-07T06:07:44.405Z,8.90
2023-02-07T06:12:47.071Z,7.60
2023-02-07T06:17:49.337Z,7.43
2023-02-07T06:22:52.391Z,7.00
2023-02-07T06:27:54.731Z,7.87
2023-02-07T06:32:57.288Z,6.73
2023-02-07T06:38:00.620Z,7.63
2023-02-07T06:43:02.910Z,7.80
2023-02-07T06:48:05.366Z,6.90
2023-02-07T06:53:07.614Z,7.60
2023-02-07T06:58:09.960Z,8.53
2023-02-07T07:03:16.654Z,8.07
2023-02-07T07:08:19.137Z,10.00
2023-02-07T07:13:21.440Z,9.03
2023-02-07T07:18:23.561Z,8.87
2023-02-07T07:23:25.752Z,7.67
2023-02-07T07:28:28.084Z,9.20
2023-02-07T07:33:30.280Z,7.70
2023-02-07T07:38:33.240Z,8.47
2023-02-07T07:43:35.366Z,10.47
2023-02-07T07:48:37.502Z,9.57
2023-02-07T07:53:39.668Z,9.13
2023-02-07T07:58:42.016Z,9.90
2023-02-07T08:03:44.152Z,10.03
2023-02-07T08:08:47.371Z,9.33
2023-02-07T08:13:50.511Z,10.50
2023-02-07T08:18:53.795Z,9.40
2023-02-07T08:23:56.296Z,9.03
2023-02-07T08:28:58.543Z,9.97
2023-02-07T08:34:00.968Z,9.30
2023-02-07T08:39:05.731Z,10.67
2023-02-07T08:44:08.813Z,10.67
2023-02-07T08:49:11.012Z,10.50
2023-02-07T08:54:13.532Z,10.03
2023-02-07T08:59:15.983Z,10.00
2023-02-07T09:04:18.432Z,10.40
2023-02-07T09:09:20.744Z,10.17
2023-02-07T09:14:23.117Z,9.93
2023-02-07T09:19:25.621Z,9.80
2023-02-07T09:24:28.092Z,11.17
2023-02-07T09:29:30.329Z,10.63
2023-02-07T09:34:35.972Z,11.13
2023-02-07T09:39:39.271Z,9.80
2023-02-07T09:45:10.571Z,14.83
2023-02-07T09:50:23.456Z,11.00
2023-02-07T09:55:53.124Z,10.27
2023-02-07T10:01:22.708Z,10.30
2023-02-07T10:06:28.694Z,9.60
2023-02-07T10:11:52.716Z,9.90
2023-02-07T10:17:12.173Z,9.13
2023-02-07T10:22:37.601Z,10.20
2023-02-07T10:28:00.797Z,8.73
2023-02-07T10:33:16.254Z,9.27
2023-02-07T10:39:07.747Z,10.00
2023-02-07T10:44:18.503Z,10.73
2023-02-07T10:49:28.328Z,10.27
2023-02-07T10:54:30.745Z,9.23
2023-02-07T10:59:46.020Z,9.70
2023-02-07T11:04:48.321Z,9.17
2023-02-07T11:09:50.629Z,9.50
2023-02-07T11:15:11.436Z,9.70
2023-02-07T11:20:40.988Z,9.60
2023-02-07T11:25:47.377Z,9.00
2023-02-07T11:31:05.891Z,10.43
2023-02-07T11:36:25.534Z,8.17
2023-02-07T11:41:34.115Z,9.00
2023-02-07T11:46:45.393Z,8.70
2023-02-07T11:51:56.616Z,9.30
2023-02-07T11:57:12.882Z,8.87
2023-02-07T12:02:23.590Z,7.67
2023-02-07T12:07:36.209Z,7.77
2023-02-07T12:13:01.096Z,8.00
2023-02-07T12:18:11.785Z,8.53
2023-02-07T12:23:41.942Z,8.27
2023-02-07T12:28:53.310Z,8.37
2023-02-07T12:34:17.915Z,9.40
2023-02-07T12:39:39.908Z,8.47
2023-02-07T12:44:52.454Z,8.10
2023-02-07T12:50:12.100Z,8.33
2023-02-07T12:55:43.682Z,7.90
2023-02-07T13:01:16.069Z,10.43
2023-02-07T13:06:49.161Z,10.13
2023-02-07T13:12:13.680Z,10.47
2023-02-07T13:17:53.854Z,10.30
2023-02-07T13:23:03.469Z,10.30
2023-02-07T13:28:30.540Z,9.00
2023-02-07T13:33:40.327Z,9.73
2023-02-07T13:39:11.891Z,11.40
2023-02-07T13:44:32.033Z,9.93
2023-02-07T13:49:49.109Z,10.03
2023-02-07T13:55:15.107Z,10.97
2023-02-07T14:00:25.156Z,10.43
2023-02-07T14:05:35.535Z,9.20
2023-02-07T14:10:52.786Z,10.33
2023-02-07T14:15:58.113Z,10.40
2023-02-07T14:21:06.066Z,11.50
2023-02-07T14:26:39.395Z,11.00
2023-02-07T14:31:54.045Z,14.10
2023-02-07T14:36:56.857Z,10.50
2023-02-07T14:42:16.175Z,11.83
2023-02-07T14:47:25.846Z,12.70
2023-02-07T14:52:33.345Z,10.93
2023-02-07T14:58:01.281Z,11.50
2023-02-07T15:03:19.456Z,12.13
2023-02-07T15:08:28.605Z,12.10
2023-02-07T15:13:36.865Z,11.37
2023-02-07T15:18:48.496Z,11.50
2023-02-07T15:24:49.566Z,12.73
2023-02-07T15:30:01.477Z,11.80
2023-02-07T15:35:39.635Z,11.00
2023-02-07T15:40:42.643Z,13.60
2023-02-07T15:46:09.619Z,11.90
2023-02-07T15:51:14.063Z,12.87
2023-02-07T15:56:16.621Z,13.70
2023-02-07T16:01:28.497Z,13.97
2023-02-07T16:06:32.748Z,13.70
2023-02-07T16:11:39.994Z,14.03
2023-02-07T16:16:51.579Z,14.97
2023-02-07T16:22:14.042Z,13.30
2023-02-07T16:27:30.375Z,13.70
2023-02-07T16:32:36.101Z,12.73
2023-02-07T16:37:38.368Z,14.53
2023-02-07T16:42:42.869Z,14.20
2023-02-07T16:47:45.561Z,15.27
2023-02-07T16:52:50.129Z,14.67
2023-02-07T16:57:53.526Z,14.50
2023-02-07T17:02:55.816Z,13.73
2023-02-07T17:07:58.111Z,15.57
2023-02-07T17:13:00.562Z,14.97
2023-02-07T17:18:03.686Z,13.80
2023-02-07T17:23:05.995Z,16.27
2023-02-07T17:28:11.632Z,13.83
2023-02-07T17:33:14.069Z,14.20
2023-02-07T17:38:16.531Z,15.30
2023-02-07T17:43:18.850Z,15.30
2023-02-07T17:48:21.165Z,13.90
2023-02-07T17:53:23.538Z,21.00
2023-02-07T17:58:25.857Z,17.00
2023-02-07T18:03:28.390Z,18.47
2023-02-07T18:08:30.669Z,23.20
2023-02-07T18:13:35.803Z,23.30
2023-02-07T18:18:39.911Z,23.67
2023-02-07T18:23:43.156Z,21.77
2023-02-07T18:28:46.573Z,18.63
2023-02-07T18:33:54.709Z,21.33
2023-02-07T18:38:58.453Z,18.67
2023-02-07T18:44:00.589Z,18.83
2023-02-07T18:49:02.762Z,16.60
2023-02-07T18:54:05.278Z,17.40
2023-02-07T18:59:07.663Z,19.97
2023-02-07T19:04:09.896Z,18.53
2023-02-07T19:09:12.656Z,22.07
2023-02-07T19:14:18.900Z,22.13
2023-02-07T19:19:21.806Z,20.57
2023-02-07T19:24:25.303Z,19.57
2023-02-07T19:29:30.067Z,20.07
2023-02-07T19:34:33.571Z,17.90
2023-02-07T19:39:35.696Z,20.87
2023-02-07T19:44:37.806Z,21.87
2023-02-07T19:49:39.998Z,23.30
2023-02-07T19:54:42.349Z,24.90
2023-02-07T19:59:46.101Z,22.33
2023-02-07T20:04:49.111Z,24.93
2023-02-07T20:09:51.302Z,22.20
2023-02-07T20:14:53.559Z,22.90
2023-02-07T20:19:55.788Z,22.30
2023-02-07T20:24:57.906Z,23.30
2023-02-07T20:30:00.123Z,25.20
2023-02-07T20:35:02.281Z,23.30
2023-02-07T20:40:04.752Z,22.47
2023-02-07T20:45:07.798Z,19.80
2023-02-07T20:50:10.161Z,19.73
2023-02-07T20:55:12.534Z,19.80
2023-02-07T21:00:15.570Z,24.67
2023-02-07T21:05:18.061Z,22.37
2023-02-07T21:10:20.348Z,20.17
2023-02-07T21:15:25.358Z,18.77
2023-02-07T21:20:28.054Z,20.10
2023-02-07T21:25:31.859Z,17.30
2023-02-07T21:30:34.951Z,20.73
2023-02-07T21:35:37.434Z,20.70
2023-02-07T21:40:39.800Z,19.27
2023-02-07T21:45:42.036Z,19.07
2023-02-07T21:50:44.340Z,18.70
2023-02-07T21:55:46.529Z,17.67
2023-02-07T22:00:48.815Z,19.80
2023-02-07T22:05:52.675Z,18.00
2023-02-07T22:10:54.977Z,18.73
2023-02-07T22:15:57.206Z,20.80
2023-02-07T22:21:18.646Z,18.27
2023-02-07T22:26:21.846Z,18.17
2023-02-07T22:31:28.463Z,18.50
2023-02-07T22:36:34.354Z,17.90
2023-02-07T22:41:37.082Z,19.67
2023-02-07T22:46:40.282Z,17.90
2023-02-07T22:51:42.452Z,18.57
2023-02-07T22:56:46.204Z,18.17
2023-02-07T23:01:48.580Z,17.13
2023-02-07T23:06:52.196Z,15.30
2023-02-07T23:11:54.487Z,16.20
2023-02-07T23:16:56.761Z,18.03
2023-02-07T23:21:59.693Z,15.93
2023-02-07T23:27:02.028Z,16.43
2023-02-07T23:32:04.924Z,16.93
2023-02-07T23:37:07.182Z,16.70
2023-02-07T23:42:10.601Z,16.30
2023-02-07T23:47:13.029Z,17.80
2023-02-07T23:52:15.339Z,16.87
2023-02-07T23:57:17.606Z,17.20
